sensor_id;sensor_type;location;lat;lon;timestamp;P1;durP1;ratioP1;P2;durP2;ratioP2
63536;SDS011;49686;51.880;5.632;2022-12-18T00:01:13;47.70;;;13.18;;
63536;SDS011;49686;51.880;5.632;2022-12-18T00:03:41;29.88;;;10.98;;
63536;SDS011;49686;51.880;5.632;2022-12-18T00:06:09;42.60;;;15.20;;
63536;SDS011;49686;51.880;5.632;2022-12-18T00:08:37;20.90;;;8.57;;
63536;SDS011;49686;51.880;5.632;2022-12-18T00:11:04;34.93;;;12.03;;
63536;SDS011;49686;51.880;5.632;2022-12-18T00:13:32;46.78;;;14.32;;
63536;SDS011;49686;51.880;5.632;2022-12-18T00:16:00;37.53;;;11.65;;
63536;SDS011;49686;51.880;5.632;2022-12-18T00:18:28;39.83;;;13.27;;
63536;SDS011;49686;51.880;5.632;2022-12-18T00:20:58;43.00;;;13.40;;
63536;SDS011;49686;51.880;5.632;2022-12-18T00:23:25;38.58;;;12.10;;
63536;SDS011;49686;51.880;5.632;2022-12-18T00:25:58;39.10;;;12.43;;
63536;SDS011;49686;51.880;5.632;2022-12-18T00:28:25;37.08;;;12.63;;
63536;SDS011;49686;51.880;5.632;2022-12-18T00:30:58;38.40;;;12.73;;
63536;SDS011;49686;51.880;5.632;2022-12-18T00:33:26;42.63;;;14.55;;
63536;SDS011;49686;51.880;5.632;2022-12-18T00:35:59;41.95;;;14.52;;
63536;SDS011;49686;51.880;5.632;2022-12-18T00:38:29;45.70;;;15.13;;
63536;SDS011;49686;51.880;5.632;2022-12-18T00:40:57;43.25;;;13.95;;
63536;SDS011;49686;51.880;5.632;2022-12-18T00:43:24;34.22;;;10.52;;
63536;SDS011;49686;51.880;5.632;2022-12-18T00:45:51;34.95;;;13.07;;
63536;SDS011;49686;51.880;5.632;2022-12-18T00:48:20;46.85;;;16.20;;
63536;SDS011;49686;51.880;5.632;2022-12-18T00:50:47;50.00;;;16.00;;
63536;SDS011;49686;51.880;5.632;2022-12-18T00:53:14;40.72;;;12.52;;
63536;SDS011;49686;51.880;5.632;2022-12-18T00:55:44;43.28;;;15.30;;
63536;SDS011;49686;51.880;5.632;2022-12-18T00:58:13;31.55;;;12.15;;
63536;SDS011;49686;51.880;5.632;2022-12-18T01:00:41;37.05;;;14.13;;
63536;SDS011;49686;51.880;5.632;2022-12-18T01:03:08;48.80;;;16.52;;
63536;SDS011;49686;51.880;5.632;2022-12-18T01:05:40;34.53;;;11.07;;
63536;SDS011;49686;51.880;5.632;2022-12-18T01:08:07;58.28;;;17.98;;
63536;SDS011;49686;51.880;5.632;2022-12-18T01:10:34;36.83;;;12.93;;
63536;SDS011;49686;51.880;5.632;2022-12-18T01:13:01;39.70;;;14.68;;
63536;SDS011;49686;51.880;5.632;2022-12-18T01:15:29;34.08;;;12.45;;
63536;SDS011;49686;51.880;5.632;2022-12-18T01:17:59;46.40;;;13.63;;
63536;SDS011;49686;51.880;5.632;2022-12-18T01:20:26;23.58;;;9.13;;
63536;SDS011;49686;51.880;5.632;2022-12-18T01:22:52;34.83;;;13.25;;
63536;SDS011;49686;51.880;5.632;2022-12-18T01:25:21;47.50;;;17.17;;
63536;SDS011;49686;51.880;5.632;2022-12-18T01:27:48;36.67;;;13.30;;
63536;SDS011;49686;51.880;5.632;2022-12-18T01:30:15;34.90;;;13.88;;
63536;SDS011;49686;51.880;5.632;2022-12-18T01:32:43;29.25;;;11.68;;
63536;SDS011;49686;51.880;5.632;2022-12-18T01:35:09;42.00;;;15.52;;
63536;SDS011;49686;51.880;5.632;2022-12-18T01:37:36;24.02;;;9.63;;
63536;SDS011;49686;51.880;5.632;2022-12-18T01:40:03;38.53;;;15.20;;
63536;SDS011;49686;51.880;5.632;2022-12-18T01:42:31;37.27;;;15.00;;
63536;SDS011;49686;51.880;5.632;2022-12-18T01:44:59;22.67;;;9.25;;
63536;SDS011;49686;51.880;5.632;2022-12-18T01:47:30;28.70;;;10.40;;
63536;SDS011;49686;51.880;5.632;2022-12-18T01:50:03;31.33;;;13.05;;
63536;SDS011;49686;51.880;5.632;2022-12-18T01:52:36;39.83;;;14.38;;
63536;SDS011;49686;51.880;5.632;2022-12-18T01:55:05;34.58;;;13.10;;
63536;SDS011;49686;51.880;5.632;2022-12-18T01:57:33;20.25;;;8.80;;
63536;SDS011;49686;51.880;5.632;2022-12-18T02:00:02;31.77;;;12.00;;
63536;SDS011;49686;51.880;5.632;2022-12-18T02:02:31;30.98;;;12.20;;
63536;SDS011;49686;51.880;5.632;2022-12-18T02:05:03;30.30;;;11.95;;
63536;SDS011;49686;51.880;5.632;2022-12-18T02:07:36;20.88;;;8.77;;
63536;SDS011;49686;51.880;5.632;2022-12-18T02:10:10;28.65;;;10.85;;
63536;SDS011;49686;51.880;5.632;2022-12-18T02:12:47;19.27;;;9.23;;
63536;SDS011;49686;51.880;5.632;2022-12-18T02:15:26;21.52;;;9.43;;
63536;SDS011;49686;51.880;5.632;2022-12-18T02:18:01;25.98;;;9.52;;
63536;SDS011;49686;51.880;5.632;2022-12-18T02:20:36;27.92;;;11.57;;
63536;SDS011;49686;51.880;5.632;2022-12-18T02:23:13;18.75;;;8.73;;
63536;SDS011;49686;51.880;5.632;2022-12-18T02:26:00;29.48;;;12.35;;
63536;SDS011;49686;51.880;5.632;2022-12-18T02:28:38;21.65;;;10.15;;
63536;SDS011;49686;51.880;5.632;2022-12-18T02:31:11;20.35;;;9.20;;
63536;SDS011;49686;51.880;5.632;2022-12-18T02:33:40;20.90;;;9.25;;
63536;SDS011;49686;51.880;5.632;2022-12-18T02:36:08;29.02;;;11.48;;
63536;SDS011;49686;51.880;5.632;2022-12-18T02:38:37;31.00;;;13.00;;
63536;SDS011;49686;51.880;5.632;2022-12-18T02:41:06;30.63;;;12.88;;
63536;SDS011;49686;51.880;5.632;2022-12-18T02:43:33;24.98;;;11.10;;
63536;SDS011;49686;51.880;5.632;2022-12-18T02:48:51;23.58;;;8.80;;
63536;SDS011;49686;51.880;5.632;2022-12-18T02:51:22;19.73;;;9.05;;
63536;SDS011;49686;51.880;5.632;2022-12-18T02:53:56;29.88;;;12.60;;
63536;SDS011;49686;51.880;5.632;2022-12-18T02:56:32;25.10;;;10.05;;
63536;SDS011;49686;51.880;5.632;2022-12-18T02:59:06;19.60;;;8.65;;
63536;SDS011;49686;51.880;5.632;2022-12-18T03:01:38;24.98;;;9.82;;
63536;SDS011;49686;51.880;5.632;2022-12-18T03:04:11;26.13;;;11.07;;
63536;SDS011;49686;51.880;5.632;2022-12-18T03:06:43;27.67;;;10.98;;
63536;SDS011;49686;51.880;5.632;2022-12-18T03:09:18;18.08;;;7.40;;
63536;SDS011;49686;51.880;5.632;2022-12-18T03:11:50;20.02;;;8.80;;
63536;SDS011;49686;51.880;5.632;2022-12-18T03:14:20;18.52;;;8.38;;
63536;SDS011;49686;51.880;5.632;2022-12-18T03:16:49;30.80;;;12.77;;
63536;SDS011;49686;51.880;5.632;2022-12-18T03:19:21;24.65;;;10.90;;
63536;SDS011;49686;51.880;5.632;2022-12-18T03:21:54;26.45;;;12.27;;
63536;SDS011;49686;51.880;5.632;2022-12-18T03:24:22;20.27;;;9.70;;
63536;SDS011;49686;51.880;5.632;2022-12-18T03:26:53;18.98;;;7.53;;
63536;SDS011;49686;51.880;5.632;2022-12-18T03:29:24;14.75;;;7.53;;
63536;SDS011;49686;51.880;5.632;2022-12-18T03:31:53;16.33;;;7.72;;
63536;SDS011;49686;51.880;5.632;2022-12-18T03:34:23;28.58;;;11.98;;
63536;SDS011;49686;51.880;5.632;2022-12-18T03:36:54;18.40;;;8.10;;
63536;SDS011;49686;51.880;5.632;2022-12-18T03:39:30;18.63;;;8.35;;
63536;SDS011;49686;51.880;5.632;2022-12-18T03:41:59;18.63;;;8.30;;
63536;SDS011;49686;51.880;5.632;2022-12-18T03:44:32;19.80;;;9.70;;
63536;SDS011;49686;51.880;5.632;2022-12-18T03:47:07;12.48;;;6.85;;
63536;SDS011;49686;51.880;5.632;2022-12-18T03:49:45;24.73;;;11.00;;
63536;SDS011;49686;51.880;5.632;2022-12-18T03:52:16;24.50;;;10.90;;
63536;SDS011;49686;51.880;5.632;2022-12-18T03:54:47;21.17;;;9.32;;
63536;SDS011;49686;51.880;5.632;2022-12-18T03:57:18;25.88;;;11.30;;
63536;SDS011;49686;51.880;5.632;2022-12-18T03:59:47;25.75;;;9.35;;
63536;SDS011;49686;51.880;5.632;2022-12-18T04:02:17;20.35;;;8.93;;
63536;SDS011;49686;51.880;5.632;2022-12-18T04:04:50;20.65;;;10.13;;
63536;SDS011;49686;51.880;5.632;2022-12-18T04:07:19;15.23;;;7.38;;
63536;SDS011;49686;51.880;5.632;2022-12-18T04:09:47;14.15;;;6.53;;
63536;SDS011;49686;51.880;5.632;2022-12-18T04:12:19;17.10;;;9.18;;
63536;SDS011;49686;51.880;5.632;2022-12-18T04:14:46;21.30;;;10.50;;
63536;SDS011;49686;51.880;5.632;2022-12-18T04:17:12;17.85;;;8.35;;
63536;SDS011;49686;51.880;5.632;2022-12-18T04:19:39;17.55;;;8.77;;
63536;SDS011;49686;51.880;5.632;2022-12-18T04:22:06;20.90;;;8.70;;
63536;SDS011;49686;51.880;5.632;2022-12-18T04:24:35;24.05;;;9.30;;
63536;SDS011;49686;51.880;5.632;2022-12-18T04:27:05;15.50;;;7.40;;
63536;SDS011;49686;51.880;5.632;2022-12-18T04:29:33;23.17;;;10.85;;
63536;SDS011;49686;51.880;5.632;2022-12-18T04:32:00;19.23;;;9.57;;
63536;SDS011;49686;51.880;5.632;2022-12-18T04:34:28;17.35;;;7.65;;
63536;SDS011;49686;51.880;5.632;2022-12-18T04:36:54;19.02;;;9.23;;
63536;SDS011;49686;51.880;5.632;2022-12-18T04:39:22;17.88;;;8.90;;
63536;SDS011;49686;51.880;5.632;2022-12-18T04:41:49;14.73;;;7.00;;
63536;SDS011;49686;51.880;5.632;2022-12-18T04:44:16;20.10;;;9.75;;
63536;SDS011;49686;51.880;5.632;2022-12-18T04:46:44;15.23;;;7.60;;
63536;SDS011;49686;51.880;5.632;2022-12-18T04:49:11;17.80;;;8.85;;
63536;SDS011;49686;51.880;5.632;2022-12-18T04:51:40;13.40;;;6.80;;
63536;SDS011;49686;51.880;5.632;2022-12-18T04:54:06;21.15;;;9.32;;
63536;SDS011;49686;51.880;5.632;2022-12-18T04:56:33;21.02;;;9.18;;
63536;SDS011;49686;51.880;5.632;2022-12-18T04:59:02;17.67;;;8.85;;
63536;SDS011;49686;51.880;5.632;2022-12-18T05:01:29;18.75;;;7.13;;
63536;SDS011;49686;51.880;5.632;2022-12-18T05:04:01;18.73;;;8.38;;
63536;SDS011;49686;51.880;5.632;2022-12-18T05:06:28;15.88;;;7.68;;
63536;SDS011;49686;51.880;5.632;2022-12-18T05:08:55;18.75;;;8.40;;
63536;SDS011;49686;51.880;5.632;2022-12-18T05:11:24;18.05;;;7.60;;
63536;SDS011;49686;51.880;5.632;2022-12-18T05:13:53;19.35;;;7.85;;
63536;SDS011;49686;51.880;5.632;2022-12-18T05:16:20;18.55;;;8.32;;
63536;SDS011;49686;51.880;5.632;2022-12-18T05:18:47;15.18;;;7.35;;
63536;SDS011;49686;51.880;5.632;2022-12-18T05:21:17;13.35;;;5.43;;
63536;SDS011;49686;51.880;5.632;2022-12-18T05:23:46;16.40;;;7.80;;
63536;SDS011;49686;51.880;5.632;2022-12-18T05:26:14;21.40;;;9.10;;
63536;SDS011;49686;51.880;5.632;2022-12-18T05:28:42;23.48;;;9.70;;
63536;SDS011;49686;51.880;5.632;2022-12-18T05:31:09;17.70;;;6.78;;
63536;SDS011;49686;51.880;5.632;2022-12-18T05:33:36;16.52;;;7.55;;
63536;SDS011;49686;51.880;5.632;2022-12-18T05:36:05;15.25;;;6.22;;
63536;SDS011;49686;51.880;5.632;2022-12-18T05:38:35;20.77;;;8.82;;
63536;SDS011;49686;51.880;5.632;2022-12-18T05:41:03;15.43;;;7.85;;
63536;SDS011;49686;51.880;5.632;2022-12-18T05:43:31;18.70;;;9.10;;
63536;SDS011;49686;51.880;5.632;2022-12-18T05:46:05;13.30;;;6.28;;
63536;SDS011;49686;51.880;5.632;2022-12-18T05:48:34;15.93;;;8.23;;
63536;SDS011;49686;51.880;5.632;2022-12-18T05:51:07;13.18;;;6.95;;
63536;SDS011;49686;51.880;5.632;2022-12-18T05:53:37;16.67;;;7.63;;
63536;SDS011;49686;51.880;5.632;2022-12-18T05:56:06;15.77;;;7.82;;
63536;SDS011;49686;51.880;5.632;2022-12-18T05:58:34;17.58;;;9.23;;
63536;SDS011;49686;51.880;5.632;2022-12-18T06:01:07;17.70;;;9.00;;
63536;SDS011;49686;51.880;5.632;2022-12-18T06:03:35;21.48;;;10.27;;
63536;SDS011;49686;51.880;5.632;2022-12-18T06:06:02;21.10;;;10.40;;
63536;SDS011;49686;51.880;5.632;2022-12-18T06:08:29;15.35;;;8.45;;
63536;SDS011;49686;51.880;5.632;2022-12-18T06:10:57;18.60;;;8.90;;
63536;SDS011;49686;51.880;5.632;2022-12-18T06:13:24;15.93;;;7.97;;
63536;SDS011;49686;51.880;5.632;2022-12-18T06:15:51;16.80;;;9.23;;
63536;SDS011;49686;51.880;5.632;2022-12-18T06:18:20;20.15;;;8.68;;
63536;SDS011;49686;51.880;5.632;2022-12-18T06:20:54;14.90;;;7.78;;
63536;SDS011;49686;51.880;5.632;2022-12-18T06:23:21;16.27;;;8.23;;
63536;SDS011;49686;51.880;5.632;2022-12-18T06:25:48;16.30;;;8.38;;
63536;SDS011;49686;51.880;5.632;2022-12-18T06:28:16;15.80;;;7.72;;
63536;SDS011;49686;51.880;5.632;2022-12-18T06:30:48;21.40;;;10.55;;
63536;SDS011;49686;51.880;5.632;2022-12-18T06:33:15;17.48;;;7.47;;
63536;SDS011;49686;51.880;5.632;2022-12-18T06:35:42;13.27;;;6.63;;
63536;SDS011;49686;51.880;5.632;2022-12-18T06:38:09;22.02;;;10.18;;
63536;SDS011;49686;51.880;5.632;2022-12-18T06:40:36;18.50;;;9.55;;
63536;SDS011;49686;51.880;5.632;2022-12-18T06:43:04;14.60;;;7.72;;
63536;SDS011;49686;51.880;5.632;2022-12-18T06:45:32;16.65;;;8.38;;
63536;SDS011;49686;51.880;5.632;2022-12-18T06:47:59;10.88;;;6.00;;
63536;SDS011;49686;51.880;5.632;2022-12-18T06:50:25;20.77;;;8.70;;
63536;SDS011;49686;51.880;5.632;2022-12-18T06:52:52;17.02;;;7.93;;
63536;SDS011;49686;51.880;5.632;2022-12-18T06:55:22;18.67;;;9.43;;
63536;SDS011;49686;51.880;5.632;2022-12-18T06:57:51;19.58;;;7.80;;
63536;SDS011;49686;51.880;5.632;2022-12-18T07:00:21;17.35;;;9.32;;
63536;SDS011;49686;51.880;5.632;2022-12-18T07:02:49;16.48;;;8.27;;
63536;SDS011;49686;51.880;5.632;2022-12-18T07:05:16;17.75;;;7.82;;
63536;SDS011;49686;51.880;5.632;2022-12-18T07:07:44;17.42;;;7.63;;
63536;SDS011;49686;51.880;5.632;2022-12-18T07:10:11;18.55;;;8.88;;
63536;SDS011;49686;51.880;5.632;2022-12-18T07:12:38;11.70;;;6.15;;
63536;SDS011;49686;51.880;5.632;2022-12-18T07:15:11;16.90;;;7.90;;
63536;SDS011;49686;51.880;5.632;2022-12-18T07:17:38;19.00;;;8.80;;
63536;SDS011;49686;51.880;5.632;2022-12-18T07:20:06;14.75;;;7.95;;
63536;SDS011;49686;51.880;5.632;2022-12-18T07:22:34;15.70;;;6.90;;
63536;SDS011;49686;51.880;5.632;2022-12-18T07:25:01;10.80;;;6.55;;
63536;SDS011;49686;51.880;5.632;2022-12-18T07:27:27;24.52;;;11.13;;
63536;SDS011;49686;51.880;5.632;2022-12-18T07:29:54;13.45;;;6.35;;
63536;SDS011;49686;51.880;5.632;2022-12-18T07:32:23;20.05;;;9.48;;
63536;SDS011;49686;51.880;5.632;2022-12-18T07:34:50;20.25;;;8.93;;
63536;SDS011;49686;51.880;5.632;2022-12-18T07:37:18;18.38;;;9.13;;
63536;SDS011;49686;51.880;5.632;2022-12-18T07:39:45;14.10;;;7.10;;
63536;SDS011;49686;51.880;5.632;2022-12-18T07:42:15;18.58;;;8.48;;
63536;SDS011;49686;51.880;5.632;2022-12-18T07:44:41;14.52;;;7.70;;
63536;SDS011;49686;51.880;5.632;2022-12-18T07:47:08;21.55;;;10.18;;
63536;SDS011;49686;51.880;5.632;2022-12-18T07:49:37;16.42;;;6.07;;
63536;SDS011;49686;51.880;5.632;2022-12-18T07:52:04;17.95;;;8.50;;
63536;SDS011;49686;51.880;5.632;2022-12-18T07:54:34;16.67;;;7.95;;
63536;SDS011;49686;51.880;5.632;2022-12-18T07:57:00;13.77;;;6.75;;
63536;SDS011;49686;51.880;5.632;2022-12-18T07:59:46;21.17;;;10.52;;
63536;SDS011;49686;51.880;5.632;2022-12-18T08:02:13;19.45;;;9.65;;
63536;SDS011;49686;51.880;5.632;2022-12-18T08:04:40;21.20;;;10.13;;
63536;SDS011;49686;51.880;5.632;2022-12-18T08:07:07;10.10;;;5.82;;
63536;SDS011;49686;51.880;5.632;2022-12-18T08:09:35;15.75;;;8.18;;
63536;SDS011;49686;51.880;5.632;2022-12-18T08:12:04;19.48;;;10.30;;
63536;SDS011;49686;51.880;5.632;2022-12-18T08:14:31;19.33;;;10.45;;
63536;SDS011;49686;51.880;5.632;2022-12-18T08:16:58;18.67;;;8.52;;
63536;SDS011;49686;51.880;5.632;2022-12-18T08:19:26;21.17;;;9.38;;
63536;SDS011;49686;51.880;5.632;2022-12-18T08:21:52;13.23;;;7.55;;
63536;SDS011;49686;51.880;5.632;2022-12-18T08:24:19;20.70;;;10.68;;
63536;SDS011;49686;51.880;5.632;2022-12-18T08:26:47;15.65;;;8.20;;
63536;SDS011;49686;51.880;5.632;2022-12-18T08:29:34;15.45;;;8.63;;
63536;SDS011;49686;51.880;5.632;2022-12-18T08:32:01;16.95;;;9.00;;
63536;SDS011;49686;51.880;5.632;2022-12-18T08:34:30;16.75;;;8.88;;
63536;SDS011;49686;51.880;5.632;2022-12-18T08:36:57;22.65;;;10.20;;
63536;SDS011;49686;51.880;5.632;2022-12-18T08:39:27;17.85;;;9.40;;
63536;SDS011;49686;51.880;5.632;2022-12-18T08:41:58;16.98;;;8.32;;
63536;SDS011;49686;51.880;5.632;2022-12-18T08:44:24;20.48;;;11.00;;
63536;SDS011;49686;51.880;5.632;2022-12-18T08:46:51;19.40;;;10.43;;
63536;SDS011;49686;51.880;5.632;2022-12-18T08:49:18;18.15;;;8.30;;
63536;SDS011;49686;51.880;5.632;2022-12-18T08:51:46;19.63;;;10.15;;
63536;SDS011;49686;51.880;5.632;2022-12-18T08:54:13;20.77;;;10.77;;
63536;SDS011;49686;51.880;5.632;2022-12-18T08:56:40;20.92;;;9.38;;
63536;SDS011;49686;51.880;5.632;2022-12-18T08:59:09;18.90;;;8.63;;
63536;SDS011;49686;51.880;5.632;2022-12-18T09:01:44;18.60;;;9.32;;
63536;SDS011;49686;51.880;5.632;2022-12-18T09:04:12;22.90;;;10.77;;
63536;SDS011;49686;51.880;5.632;2022-12-18T09:06:39;19.10;;;9.90;;
63536;SDS011;49686;51.880;5.632;2022-12-18T09:09:06;17.02;;;8.77;;
63536;SDS011;49686;51.880;5.632;2022-12-18T09:11:33;18.63;;;8.00;;
63536;SDS011;49686;51.880;5.632;2022-12-18T09:14:00;18.35;;;9.02;;
63536;SDS011;49686;51.880;5.632;2022-12-18T09:16:29;14.85;;;7.53;;
63536;SDS011;49686;51.880;5.632;2022-12-18T09:19:00;16.17;;;7.75;;
63536;SDS011;49686;51.880;5.632;2022-12-18T09:21:31;17.38;;;8.38;;
63536;SDS011;49686;51.880;5.632;2022-12-18T09:24:02;25.75;;;11.55;;
63536;SDS011;49686;51.880;5.632;2022-12-18T09:26:34;16.27;;;8.30;;
63536;SDS011;49686;51.880;5.632;2022-12-18T09:29:01;16.85;;;9.20;;
63536;SDS011;49686;51.880;5.632;2022-12-18T09:31:30;17.65;;;8.50;;
63536;SDS011;49686;51.880;5.632;2022-12-18T09:33:57;18.67;;;10.05;;
63536;SDS011;49686;51.880;5.632;2022-12-18T09:36:23;16.38;;;7.35;;
63536;SDS011;49686;51.880;5.632;2022-12-18T09:38:50;17.67;;;8.60;;
63536;SDS011;49686;51.880;5.632;2022-12-18T09:41:30;17.10;;;8.85;;
63536;SDS011;49686;51.880;5.632;2022-12-18T09:44:09;18.70;;;9.18;;
63536;SDS011;49686;51.880;5.632;2022-12-18T09:46:45;18.55;;;9.52;;
63536;SDS011;49686;51.880;5.632;2022-12-18T09:49:14;17.38;;;8.15;;
63536;SDS011;49686;51.880;5.632;2022-12-18T09:51:45;13.88;;;6.82;;
63536;SDS011;49686;51.880;5.632;2022-12-18T09:54:18;17.35;;;9.70;;
63536;SDS011;49686;51.880;5.632;2022-12-18T09:56:48;17.33;;;8.88;;
63536;SDS011;49686;51.880;5.632;2022-12-18T09:59:18;18.95;;;9.60;;
63536;SDS011;49686;51.880;5.632;2022-12-18T10:01:50;18.05;;;8.50;;
63536;SDS011;49686;51.880;5.632;2022-12-18T10:04:18;17.30;;;9.60;;
63536;SDS011;49686;51.880;5.632;2022-12-18T10:06:46;16.20;;;7.65;;
63536;SDS011;49686;51.880;5.632;2022-12-18T10:09:21;20.58;;;9.40;;
63536;SDS011;49686;51.880;5.632;2022-12-18T10:11:56;21.20;;;10.00;;
63536;SDS011;49686;51.880;5.632;2022-12-18T10:14:30;18.77;;;8.82;;
63536;SDS011;49686;51.880;5.632;2022-12-18T10:17:05;18.60;;;10.05;;
63536;SDS011;49686;51.880;5.632;2022-12-18T10:19:39;17.42;;;8.98;;
63536;SDS011;49686;51.880;5.632;2022-12-18T10:22:11;13.02;;;7.07;;
63536;SDS011;49686;51.880;5.632;2022-12-18T10:24:45;20.27;;;9.43;;
63536;SDS011;49686;51.880;5.632;2022-12-18T10:27:21;17.38;;;7.95;;
63536;SDS011;49686;51.880;5.632;2022-12-18T10:29:50;14.43;;;7.13;;
63536;SDS011;49686;51.880;5.632;2022-12-18T10:32:19;16.48;;;7.72;;
63536;SDS011;49686;51.880;5.632;2022-12-18T10:34:57;19.08;;;9.85;;
63536;SDS011;49686;51.880;5.632;2022-12-18T10:37:27;16.60;;;8.57;;
63536;SDS011;49686;51.880;5.632;2022-12-18T10:40:08;19.83;;;9.60;;
63536;SDS011;49686;51.880;5.632;2022-12-18T10:42:47;21.85;;;8.82;;
63536;SDS011;49686;51.880;5.632;2022-12-18T10:45:29;19.65;;;10.88;;
63536;SDS011;49686;51.880;5.632;2022-12-18T10:47:57;12.43;;;6.85;;
63536;SDS011;49686;51.880;5.632;2022-12-18T10:50:32;17.60;;;8.32;;
63536;SDS011;49686;51.880;5.632;2022-12-18T10:53:22;16.05;;;9.15;;
63536;SDS011;49686;51.880;5.632;2022-12-18T10:55:51;13.68;;;7.18;;
63536;SDS011;49686;51.880;5.632;2022-12-18T10:58:21;13.48;;;7.05;;
63536;SDS011;49686;51.880;5.632;2022-12-18T11:01:02;15.75;;;7.50;;
63536;SDS011;49686;51.880;5.632;2022-12-18T11:03:38;17.40;;;8.50;;
63536;SDS011;49686;51.880;5.632;2022-12-18T11:06:08;19.45;;;8.98;;
63536;SDS011;49686;51.880;5.632;2022-12-18T11:08:36;21.80;;;10.13;;
63536;SDS011;49686;51.880;5.632;2022-12-18T11:11:06;17.05;;;8.93;;
63536;SDS011;49686;51.880;5.632;2022-12-18T11:13:47;16.80;;;8.52;;
63536;SDS011;49686;51.880;5.632;2022-12-18T11:16:23;16.23;;;8.30;;
63536;SDS011;49686;51.880;5.632;2022-12-18T11:18:51;16.63;;;8.43;;
63536;SDS011;49686;51.880;5.632;2022-12-18T11:21:18;13.38;;;7.38;;
63536;SDS011;49686;51.880;5.632;2022-12-18T11:23:46;18.25;;;9.60;;
63536;SDS011;49686;51.880;5.632;2022-12-18T11:26:15;17.45;;;9.13;;
63536;SDS011;49686;51.880;5.632;2022-12-18T11:28:43;14.70;;;7.43;;
63536;SDS011;49686;51.880;5.632;2022-12-18T11:31:19;17.15;;;8.48;;
63536;SDS011;49686;51.880;5.632;2022-12-18T11:36:54;17.67;;;8.23;;
63536;SDS011;49686;51.880;5.632;2022-12-18T11:41:59;15.02;;;8.30;;
63536;SDS011;49686;51.880;5.632;2022-12-18T11:44:32;17.73;;;8.68;;
63536;SDS011;49686;51.880;5.632;2022-12-18T11:47:07;15.25;;;7.57;;
63536;SDS011;49686;51.880;5.632;2022-12-18T11:49:42;17.77;;;8.52;;
63536;SDS011;49686;51.880;5.632;2022-12-18T11:52:10;15.80;;;7.90;;
63536;SDS011;49686;51.880;5.632;2022-12-18T11:54:45;16.40;;;8.00;;
63536;SDS011;49686;51.880;5.632;2022-12-18T11:57:14;17.73;;;9.57;;
63536;SDS011;49686;51.880;5.632;2022-12-18T11:59:51;14.27;;;7.35;;
63536;SDS011;49686;51.880;5.632;2022-12-18T12:02:26;18.17;;;9.63;;
63536;SDS011;49686;51.880;5.632;2022-12-18T12:05:23;19.42;;;9.20;;
63536;SDS011;49686;51.880;5.632;2022-12-18T12:08:04;16.73;;;8.68;;
63536;SDS011;49686;51.880;5.632;2022-12-18T12:10:46;11.82;;;6.55;;
63536;SDS011;49686;51.880;5.632;2022-12-18T12:13:24;15.52;;;8.27;;
63536;SDS011;49686;51.880;5.632;2022-12-18T12:16:05;16.83;;;9.07;;
63536;SDS011;49686;51.880;5.632;2022-12-18T12:18:44;18.02;;;8.85;;
63536;SDS011;49686;51.880;5.632;2022-12-18T12:21:25;17.58;;;8.82;;
63536;SDS011;49686;51.880;5.632;2022-12-18T12:24:00;12.98;;;7.07;;
63536;SDS011;49686;51.880;5.632;2022-12-18T12:26:38;17.40;;;9.15;;
63536;SDS011;49686;51.880;5.632;2022-12-18T12:29:18;15.95;;;8.80;;
63536;SDS011;49686;51.880;5.632;2022-12-18T12:32:00;17.10;;;8.63;;
63536;SDS011;49686;51.880;5.632;2022-12-18T12:34:50;19.20;;;9.50;;
63536;SDS011;49686;51.880;5.632;2022-12-18T12:37:36;16.33;;;8.88;;
63536;SDS011;49686;51.880;5.632;2022-12-18T12:40:12;18.42;;;8.55;;
63536;SDS011;49686;51.880;5.632;2022-12-18T12:43:05;15.98;;;8.43;;
63536;SDS011;49686;51.880;5.632;2022-12-18T12:45:48;16.90;;;8.45;;
63536;SDS011;49686;51.880;5.632;2022-12-18T12:48:21;17.65;;;8.68;;
63536;SDS011;49686;51.880;5.632;2022-12-18T12:50:58;13.93;;;7.63;;
63536;SDS011;49686;51.880;5.632;2022-12-18T12:53:30;15.23;;;8.63;;
63536;SDS011;49686;51.880;5.632;2022-12-18T12:56:01;15.25;;;8.93;;
63536;SDS011;49686;51.880;5.632;2022-12-18T12:58:31;20.83;;;10.07;;
63536;SDS011;49686;51.880;5.632;2022-12-18T13:01:14;15.98;;;7.82;;
63536;SDS011;49686;51.880;5.632;2022-12-18T13:03:54;17.70;;;9.75;;
63536;SDS011;49686;51.880;5.632;2022-12-18T13:06:30;12.48;;;7.07;;
63536;SDS011;49686;51.880;5.632;2022-12-18T13:09:11;15.90;;;8.43;;
63536;SDS011;49686;51.880;5.632;2022-12-18T13:11:38;13.98;;;7.28;;
63536;SDS011;49686;51.880;5.632;2022-12-18T13:16:46;18.73;;;8.32;;
63536;SDS011;49686;51.880;5.632;2022-12-18T13:19:19;16.33;;;9.15;;
63536;SDS011;49686;51.880;5.632;2022-12-18T13:21:52;18.90;;;9.25;;
63536;SDS011;49686;51.880;5.632;2022-12-18T13:24:25;20.80;;;10.00;;
63536;SDS011;49686;51.880;5.632;2022-12-18T13:26:53;14.57;;;7.30;;
63536;SDS011;49686;51.880;5.632;2022-12-18T13:32:21;18.02;;;9.48;;
63536;SDS011;49686;51.880;5.632;2022-12-18T13:37:51;18.27;;;8.80;;
63536;SDS011;49686;51.880;5.632;2022-12-18T13:43:27;15.30;;;8.02;;
63536;SDS011;49686;51.880;5.632;2022-12-18T13:46:16;21.67;;;9.85;;
63536;SDS011;49686;51.880;5.632;2022-12-18T13:48:52;16.27;;;8.13;;
63536;SDS011;49686;51.880;5.632;2022-12-18T13:51:22;15.27;;;8.05;;
63536;SDS011;49686;51.880;5.632;2022-12-18T13:53:50;19.90;;;9.07;;
63536;SDS011;49686;51.880;5.632;2022-12-18T13:56:22;18.40;;;9.82;;
63536;SDS011;49686;51.880;5.632;2022-12-18T13:59:14;19.85;;;9.80;;
63536;SDS011;49686;51.880;5.632;2022-12-18T14:01:44;17.65;;;8.90;;
63536;SDS011;49686;51.880;5.632;2022-12-18T14:04:18;18.58;;;10.00;;
63536;SDS011;49686;51.880;5.632;2022-12-18T14:06:49;18.98;;;9.85;;
63536;SDS011;49686;51.880;5.632;2022-12-18T14:09:19;17.05;;;8.50;;
63536;SDS011;49686;51.880;5.632;2022-12-18T14:11:52;17.70;;;9.38;;
63536;SDS011;49686;51.880;5.632;2022-12-18T14:14:23;15.63;;;7.45;;
63536;SDS011;49686;51.880;5.632;2022-12-18T14:16:58;18.70;;;8.63;;
63536;SDS011;49686;51.880;5.632;2022-12-18T14:19:27;13.57;;;7.18;;
63536;SDS011;49686;51.880;5.632;2022-12-18T14:21:54;17.50;;;8.35;;
63536;SDS011;49686;51.880;5.632;2022-12-18T14:24:22;19.38;;;9.57;;
63536;SDS011;49686;51.880;5.632;2022-12-18T14:26:49;19.40;;;9.93;;
63536;SDS011;49686;51.880;5.632;2022-12-18T14:29:38;18.92;;;9.93;;
63536;SDS011;49686;51.880;5.632;2022-12-18T14:32:10;20.23;;;10.90;;
63536;SDS011;49686;51.880;5.632;2022-12-18T14:34:43;17.88;;;8.73;;
63536;SDS011;49686;51.880;5.632;2022-12-18T14:37:15;17.85;;;9.45;;
63536;SDS011;49686;51.880;5.632;2022-12-18T14:39:56;16.20;;;8.43;;
63536;SDS011;49686;51.880;5.632;2022-12-18T14:42:26;21.15;;;10.88;;
63536;SDS011;49686;51.880;5.632;2022-12-18T14:48:13;20.25;;;9.43;;
63536;SDS011;49686;51.880;5.632;2022-12-18T14:50:59;21.27;;;10.10;;
63536;SDS011;49686;51.880;5.632;2022-12-18T14:53:35;15.60;;;8.65;;
63536;SDS011;49686;51.880;5.632;2022-12-18T14:56:10;18.20;;;9.55;;
63536;SDS011;49686;51.880;5.632;2022-12-18T14:58:45;16.98;;;8.40;;
63536;SDS011;49686;51.880;5.632;2022-12-18T15:01:18;18.15;;;9.73;;
63536;SDS011;49686;51.880;5.632;2022-12-18T15:03:56;19.13;;;9.75;;
63536;SDS011;49686;51.880;5.632;2022-12-18T15:06:28;18.58;;;10.02;;
63536;SDS011;49686;51.880;5.632;2022-12-18T15:08:57;18.15;;;9.18;;
63536;SDS011;49686;51.880;5.632;2022-12-18T15:11:26;17.73;;;9.67;;
63536;SDS011;49686;51.880;5.632;2022-12-18T15:14:24;13.23;;;7.63;;
63536;SDS011;49686;51.880;5.632;2022-12-18T15:16:58;19.75;;;10.65;;